^^
Station Historical Data
Daily Summary for December 8, 2017 Units:  English    Metric   Both
« Previous Day
Next Day »
Daily Weekly Monthly Yearly Custom
  High: Low: Average:
Temperature: 88.5 °F 57.2 °F 73 °F
Dew Point: 57.2 °F 39.0 °F 50.3 °F
Humidity: 92% 19% 52%
Wind Speed: 10.1mph 0.0mph 2.4mph
Wind Gust: 14.0mph - -
Wind- - ESE
Pressure: 30.32 in 30.22 in -
Precipitation: 0.00 in    
Historical Graphs
 
 
Tabular Data for December 8, 2017
Time Temperature Dew Point Pressure Wind Wind Speed Wind Gust Humidity Rainfall Rate (Hourly) solar Conditions
00:08 59.4 °F 56.1 °F 30.28 in ENE 0.9 mph 2.0 mph 89% 0.00 in 0.0 W/m2
00:13 59.4 °F 56.1 °F 30.28 in NE 2.9 mph 6.0 mph 89% 0.00 in 0.0 W/m2
00:18 59.4 °F 56.1 °F 30.27 in NNE 0.9 mph 4.0 mph 89% 0.00 in 0.0 W/m2
00:23 59.4 °F 56.1 °F 30.27 in Calm   1.0 mph 89% 0.00 in 0.0 W/m2
00:33 59.4 °F 56.5 °F 30.26 in Calm   1.0 mph 90% 0.00 in 0.0 W/m2
00:38 59.4 °F 56.5 °F 30.26 in Calm   1.0 mph 90% 0.00 in 0.0 W/m2
00:44 59.4 °F 56.1 °F 30.26 in Calm   1.0 mph 89% 0.00 in 0.0 W/m2
00:49 59.4 °F 56.1 °F 30.26 in Calm     89% 0.00 in 0.0 W/m2
00:59 59.5 °F 56.7 °F 30.25 in Calm   1.0 mph 90% 0.00 in 0.0 W/m2
01:04 59.5 °F 56.7 °F 30.25 in Calm   3.0 mph 90% 0.00 in 0.0 W/m2
01:14 59.7 °F 56.8 °F 30.25 in Calm     90% 0.00 in 0.0 W/m2
01:19 59.7 °F 56.8 °F 30.24 in ESE 2.0 mph 3.0 mph 90% 0.00 in 0.0 W/m2
01:24 59.9 °F 57.0 °F 30.24 in Calm   1.0 mph 90% 0.00 in 0.0 W/m2
01:35 60.1 °F 57.2 °F 30.24 in Calm   1.0 mph 90% 0.00 in 0.0 W/m2
01:40 60.1 °F 57.2 °F 30.24 in Calm   1.0 mph 90% 0.00 in 0.0 W/m2
01:45 60.1 °F 57.2 °F 30.24 in Calm     90% 0.00 in 0.0 W/m2
01:50 60.1 °F 57.2 °F 30.24 in SSE 0.9 mph 3.0 mph 90% 0.00 in 0.0 W/m2
01:55 59.9 °F 57.0 °F 30.24 in Calm     90% 0.00 in 0.0 W/m2
02:00 59.7 °F 56.5 °F 30.24 in Calm   2.0 mph 89% 0.00 in 0.0 W/m2
02:01 59.7 °F 56.5 °F 30.24 in Calm   2.0 mph 89% 0.00 in 0.0 W/m2
02:06 59.7 °F 56.8 °F 30.24 in SE 2.0 mph 4.0 mph 90% 0.00 in 0.0 W/m2
02:12 59.5 °F 56.7 °F 30.24 in ESE 0.9 mph 1.0 mph 90% 0.00 in 0.0 W/m2
02:33 59.2 °F 56.3 °F 30.24 in SE 2.0 mph 3.0 mph 90% 0.00 in 0.0 W/m2
02:38 59.0 °F 56.1 °F 30.24 in Calm   2.0 mph 90% 0.00 in 0.0 W/m2
02:48 58.8 °F 55.9 °F 30.24 in Calm     90% 0.00 in 0.0 W/m2
02:53 58.6 °F 55.8 °F 30.24 in Calm     90% 0.00 in 0.0 W/m2
02:58 58.6 °F 55.9 °F 30.24 in Calm     91% 0.00 in 0.0 W/m2
03:09 58.5 °F 55.6 °F 30.24 in NE 0.9 mph 3.0 mph 90% 0.00 in 0.0 W/m2
03:14 58.3 °F 55.0 °F 30.24 in NE 4.0 mph 4.0 mph 89% 0.00 in 0.0 W/m2
03:19 58.3 °F 54.7 °F 30.24 in NE 2.9 mph 4.0 mph 88% 0.00 in 0.0 W/m2
03:24 58.5 °F 54.9 °F 30.25 in NE 2.0 mph 4.0 mph 88% 0.00 in 0.0 W/m2
03:29 58.5 °F 54.9 °F 30.25 in Calm   2.0 mph 88% 0.00 in 0.0 W/m2
03:34 58.5 °F 54.7 °F 30.24 in Calm     87% 0.00 in 0.0 W/m2
03:40 58.5 °F 54.9 °F 30.25 in Calm   1.0 mph 88% 0.00 in 0.0 W/m2
03:45 58.5 °F 54.9 °F 30.25 in Calm     88% 0.00 in 0.0 W/m2
03:55 58.3 °F 55.0 °F 30.25 in Calm     89% 0.00 in 0.0 W/m2
04:05 57.9 °F 55.0 °F 30.25 in Calm   1.0 mph 90% 0.00 in 0.0 W/m2
04:10 57.9 °F 55.0 °F 30.25 in Calm     90% 0.00 in 0.0 W/m2
04:15 57.7 °F 54.9 °F 30.25 in Calm     90% 0.00 in 0.0 W/m2
04:26 57.7 °F 55.2 °F 30.25 in Calm     91% 0.00 in 0.0 W/m2
04:31 57.7 °F 55.2 °F 30.25 in SE 0.9 mph 1.0 mph 91% 0.00 in 0.0 W/m2
04:41 57.6 °F 55.0 °F 30.25 in Calm     91% 0.00 in 0.0 W/m2
04:46 57.6 °F 55.0 °F 30.25 in Calm     91% 0.00 in 0.0 W/m2
04:51 57.6 °F 55.0 °F 30.25 in SE 0.9 mph 1.0 mph 91% 0.00 in 0.0 W/m2
04:56 57.6 °F 55.0 °F 30.25 in Calm   1.0 mph 91% 0.00 in 0.0 W/m2
05:01 57.4 °F 54.9 °F 30.25 in ENE 0.9 mph 2.0 mph 91% 0.00 in 0.0 W/m2
05:21 57.4 °F 55.0 °F 30.25 in Calm     92% 0.00 in 0.0 W/m2
05:22 57.4 °F 54.9 °F 30.25 in East 0.9 mph 1.0 mph 91% 0.00 in 0.0 W/m2
05:28 57.4 °F 55.0 °F 30.25 in Calm   1.0 mph 92% 0.00 in 0.0 W/m2
05:33 57.4 °F 54.9 °F 30.26 in Calm     91% 0.00 in 0.0 W/m2
05:36 57.2 °F 54.7 °F 30.26 in Calm   3.0 mph 91% 0.00 in 0.0 W/m2
05:41 57.2 °F 54.7 °F 30.26 in ESE 2.0 mph 2.0 mph 91% 0.00 in 0.0 W/m2
05:46 57.4 °F 54.5 °F 30.26 in Calm   1.0 mph 90% 0.00 in 0.0 W/m2
05:51 57.4 °F 54.5 °F 30.27 in East 0.9 mph 2.0 mph 90% 0.00 in 0.0 W/m2
05:56 57.4 °F 54.5 °F 30.27 in Calm   3.0 mph 90% 0.00 in 0.0 W/m2
06:02 57.4 °F 54.5 °F 30.27 in ENE 0.9 mph 2.0 mph 90% 0.00 in 0.0 W/m2
06:07 57.6 °F 54.3 °F 30.28 in ESE 0.9 mph 5.0 mph 89% 0.00 in 5.0 W/m2
06:12 57.7 °F 54.1 °F 30.28 in ENE 2.0 mph 6.0 mph 88% 0.00 in 7.0 W/m2
06:22 58.1 °F 54.3 °F 30.29 in NNE 2.0 mph 9.0 mph 87% 0.00 in 11.0 W/m2
06:27 58.5 °F 54.7 °F 30.29 in Calm   5.0 mph 87% 0.00 in 12.0 W/m2
06:32 58.6 °F 54.9 °F 30.29 in East 2.9 mph 7.0 mph 87% 0.00 in 12.0 W/m2
06:42 59.4 °F 55.2 °F 30.29 in ESE 2.0 mph 6.0 mph 86% 0.00 in 16.0 W/m2
06:58 60.1 °F 55.2 °F 30.30 in ENE 2.0 mph 3.0 mph 84% 0.00 in 19.0 W/m2
07:08 60.8 °F 55.2 °F 30.30 in East 2.0 mph 4.0 mph 82% 0.00 in 21.0 W/m2
07:23 62.1 °F 55.4 °F 30.31 in NE 2.9 mph 9.0 mph 79% 0.00 in 23.0 W/m2
07:28 62.6 °F 55.6 °F 30.31 in SE 0.9 mph 5.0 mph 78% 0.00 in 58.0 W/m2
07:34 63.0 °F 55.2 °F 30.31 in Calm   6.0 mph 76% 0.00 in 178.0 W/m2
07:39 63.7 °F 55.9 °F 30.31 in East 6.0 mph 10.0 mph 76% 0.00 in 308.0 W/m2
07:44 64.4 °F 55.9 °F 30.32 in NNE 4.0 mph 12.0 mph 74% 0.00 in 323.0 W/m2
07:49 65.1 °F 55.9 °F 30.32 in NE 4.0 mph 10.0 mph 72% 0.00 in 357.0 W/m2
07:53 65.7 °F 55.9 °F 30.32 in ENE 2.9 mph 10.0 mph 71% 0.00 in 380.0 W/m2
08:03 66.6 °F 56.1 °F 30.32 in NE 6.0 mph 8.0 mph 69% 0.00 in 432.0 W/m2
08:13 67.5 °F 55.8 °F 30.32 in East 4.9 mph 9.0 mph 66% 0.00 in 483.0 W/m2
08:19 68.0 °F 54.9 °F 30.32 in ESE 4.9 mph 9.0 mph 63% 0.00 in 506.0 W/m2
08:24 68.4 °F 54.3 °F 30.32 in NNE 4.0 mph 13.0 mph 61% 0.00 in 526.0 W/m2
08:35 69.1 °F 55.6 °F 30.32 in NNE 2.9 mph 6.0 mph 62% 0.00 in 563.0 W/m2
08:40 69.4 °F 54.9 °F 30.32 in NE 6.0 mph 12.0 mph 60% 0.00 in 582.0 W/m2
08:45 70.0 °F 55.0 °F 30.32 in SE 2.9 mph 9.0 mph 59% 0.00 in 601.0 W/m2
08:50 70.3 °F 55.4 °F 30.32 in NE 2.9 mph 9.0 mph 59% 0.00 in 617.0 W/m2
08:55 70.7 °F 54.7 °F 30.32 in ESE 2.9 mph 6.0 mph 57% 0.00 in 636.0 W/m2
09:00 71.1 °F 55.6 °F 30.32 in East 4.9 mph 6.0 mph 58% 0.00 in 654.0 W/m2
09:10 71.8 °F 54.3 °F 30.32 in NE 0.9 mph 10.0 mph 54% 0.00 in 687.0 W/m2
09:16 72.1 °F 54.1 °F 30.32 in ESE 2.0 mph 8.0 mph 53% 0.00 in 705.0 W/m2
09:22 72.5 °F 54.3 °F 30.32 in NNE 4.0 mph 10.0 mph 53% 0.00 in 726.0 W/m2
09:33 73.2 °F 53.4 °F 30.32 in ENE 2.0 mph 7.0 mph 50% 0.00 in 761.0 W/m2
09:38 73.6 °F 54.3 °F 30.32 in NE 2.9 mph 12.0 mph 51% 0.00 in 779.0 W/m2
09:43 73.8 °F 55.0 °F 30.31 in Calm   11.0 mph 52% 0.00 in 793.0 W/m2
09:49 74.1 °F 54.3 °F 30.31 in SSE 4.0 mph 9.0 mph 50% 0.00 in 812.0 W/m2
09:59 74.7 °F 54.9 °F 30.31 in NE 6.9 mph 7.0 mph 50% 0.00 in 838.0 W/m2
10:04 74.8 °F 54.3 °F 30.31 in South 2.0 mph 5.0 mph 49% 0.00 in 851.0 W/m2
10:09 75.4 °F 55.4 °F 30.31 in NE 2.0 mph 11.0 mph 50% 0.00 in 867.0 W/m2
10:19 75.9 °F 54.9 °F 30.31 in North 8.1 mph 9.0 mph 48% 0.00 in 891.0 W/m2
10:24 76.3 °F 55.2 °F 30.31 in East 0.9 mph 6.0 mph 48% 0.00 in 902.0 W/m2
10:30 76.5 °F 55.4 °F 30.31 in East 4.9 mph 7.0 mph 48% 0.00 in 918.0 W/m2
10:35 76.5 °F 54.1 °F 30.31 in ENE 4.9 mph 10.0 mph 46% 0.00 in 926.0 W/m2
10:40 76.6 °F 54.3 °F 30.31 in ENE 2.0 mph 11.0 mph 46% 0.00 in 939.0 W/m2
10:50 77.4 °F 53.1 °F 30.31 in ENE 6.0 mph 8.0 mph 43% 0.00 in 958.0 W/m2
10:55 77.7 °F 52.9 °F 30.31 in NE 4.9 mph 5.0 mph 42% 0.00 in 970.0 W/m2
11:15 79.2 °F 51.4 °F 30.31 in NE 2.9 mph 8.0 mph 38% 0.00 in 995.0 W/m2
11:20 79.2 °F 51.4 °F 30.31 in NNE 6.9 mph 8.0 mph 38% 0.00 in 1011.0 W/m2
11:25 79.5 °F 51.6 °F 30.31 in NE 2.9 mph 8.0 mph 38% 0.00 in 1014.0 W/m2
11:30 79.9 °F 52.0 °F 30.31 in NNE 4.9 mph 8.0 mph 38% 0.00 in 1016.0 W/m2
11:42 80.8 °F 52.2 °F 30.31 in East 6.9 mph 13.0 mph 37% 0.00 in 1037.0 W/m2
11:47 80.8 °F 52.2 °F 30.31 in East 4.9 mph 10.0 mph 37% 0.00 in 1037.0 W/m2
11:52 80.8 °F 52.9 °F 30.31 in NNE 2.0 mph 6.0 mph 38% 0.00 in 1035.0 W/m2
12:08 81.7 °F 51.4 °F 30.30 in Calm   9.0 mph 35% 0.00 in 1062.0 W/m2
12:13 81.9 °F 51.4 °F 30.31 in SSE 0.9 mph 11.0 mph 35% 0.00 in 1078.0 W/m2
12:30 82.0 °F 52.5 °F 30.30 in ENE 4.9 mph 10.0 mph 36% 0.00 in 1113.0 W/m2
12:36 81.5 °F 48.0 °F 30.30 in SE 10.1 mph 13.0 mph 31% 0.00 in 1095.0 W/m2
12:41 81.7 °F 50.5 °F 30.30 in NE 6.0 mph 11.0 mph 34% 0.00 in 1076.0 W/m2
12:46 82.4 °F 50.4 °F 30.29 in SE 8.1 mph 8.1 mph 33% 0.00 in 1076.0 W/m2
12:52 82.8 °F 49.1 °F 30.30 in ESE 2.0 mph 4.0 mph 31% 0.00 in 1097.0 W/m2
13:03 83.5 °F 49.6 °F 30.29 in North 6.9 mph 10.0 mph 31% 0.00 in 1111.0 W/m2
13:08 83.7 °F 50.7 °F 30.29 in NNW 2.0 mph 11.0 mph 32% 0.00 in 1144.0 W/m2
13:14 84.4 °F 49.6 °F 30.29 in ENE 4.0 mph 12.0 mph 30% 0.00 in 1111.0 W/m2
13:19 84.6 °F 49.6 °F 30.29 in Calm   1.0 mph 30% 0.00 in 214.0 W/m2
13:24 84.6 °F 47.8 °F 30.28 in NNE 6.9 mph 7.0 mph 28% 0.00 in 1113.0 W/m2
13:29 84.0 °F 48.4 °F 30.28 in SE 8.1 mph 14.0 mph 29% 0.00 in 142.0 W/m2
13:40 84.0 °F 50.2 °F 30.28 in East 6.0 mph 8.0 mph 31% 0.00 in 1144.0 W/m2
13:45 84.4 °F 49.6 °F 30.28 in NE 6.0 mph 9.0 mph 30% 0.00 in 171.0 W/m2
13:50 84.0 °F 48.4 °F 30.28 in SE 2.0 mph 3.0 mph 29% 0.00 in 1095.0 W/m2
13:56 84.6 °F 46.9 °F 30.28 in NE 2.9 mph 8.0 mph 27% 0.00 in 1086.0 W/m2
14:02 84.9 °F 46.2 °F 30.27 in ESE 4.0 mph 5.0 mph 26% 0.00 in 1056.0 W/m2
14:13 85.5 °F 46.6 °F 30.27 in NE 2.9 mph 7.0 mph 26% 0.00 in 1120.0 W/m2
14:18 85.6 °F 47.8 °F 30.27 in North 2.9 mph 9.0 mph 27% 0.00 in 1095.0 W/m2
14:23 86.0 °F 47.1 °F 30.27 in NW 2.0 mph 10.0 mph 26% 0.00 in 1020.0 W/m2
14:29 86.4 °F 44.2 °F 30.27 in East 2.9 mph 6.0 mph 23% 0.00 in 257.0 W/m2
14:34 86.2 °F 44.1 °F 30.27 in NNE 6.9 mph 10.0 mph 23% 0.00 in 1034.0 W/m2
14:39 86.4 °F 43.0 °F 30.27 in NNW 4.0 mph 6.0 mph 22% 0.00 in 1020.0 W/m2
14:44 86.7 °F 43.3 °F 30.27 in ENE 8.9 mph 9.0 mph 22% 0.00 in 1002.0 W/m2
14:49 87.1 °F 42.4 °F 30.27 in Calm   5.0 mph 21% 0.00 in 960.0 W/m2
14:54 87.4 °F 43.9 °F 30.27 in ENE 4.9 mph 7.0 mph 22% 0.00 in 930.0 W/m2
15:00 88.0 °F 43.2 °F 30.26 in NE 2.0 mph 5.0 mph 21% 0.00 in 914.0 W/m2
15:05 88.2 °F 42.1 °F 30.26 in NNW 6.0 mph 8.0 mph 20% 0.00 in 905.0 W/m2
15:20 88.3 °F 44.6 °F 30.26 in SE 2.9 mph 6.0 mph 22% 0.00 in 900.0 W/m2
15:25 88.5 °F 44.8 °F 30.25 in NNW 0.9 mph 4.0 mph 22% 0.00 in 886.0 W/m2
15:36 88.3 °F 44.6 °F 30.25 in ESE 2.9 mph 6.0 mph 22% 0.00 in 854.0 W/m2
15:41 88.3 °F 43.5 °F 30.25 in SE 0.9 mph 7.0 mph 21% 0.00 in 830.0 W/m2
15:46 88.5 °F 44.8 °F 30.25 in East 2.9 mph 7.0 mph 22% 0.00 in 712.0 W/m2
15:57 87.6 °F 44.1 °F 30.25 in SE 2.9 mph 8.0 mph 22% 0.00 in 76.0 W/m2
16:03 86.4 °F 44.2 °F 30.25 in ENE 0.9 mph 6.0 mph 23% 0.00 in 83.0 W/m2
16:08 85.5 °F 44.6 °F 30.24 in SE 2.0 mph 8.0 mph 24% 0.00 in 77.0 W/m2
16:13 85.1 °F 44.2 °F 30.24 in South 4.0 mph 6.0 mph 24% 0.00 in 708.0 W/m2
16:18 85.5 °F 43.5 °F 30.24 in ESE 0.9 mph 7.0 mph 23% 0.00 in 687.0 W/m2
16:23 86.2 °F 41.7 °F 30.23 in South 2.0 mph 4.0 mph 21% 0.00 in 671.0 W/m2
16:28 86.7 °F 43.3 °F 30.23 in SE 2.0 mph 5.0 mph 22% 0.00 in 673.0 W/m2
16:33 87.4 °F 43.9 °F 30.23 in SE 2.9 mph 4.0 mph 22% 0.00 in 663.0 W/m2
16:38 87.4 °F 43.9 °F 30.23 in Calm   4.0 mph 22% 0.00 in 643.0 W/m2
16:43 87.4 °F 43.9 °F 30.23 in NNE 2.9 mph 9.0 mph 22% 0.00 in 93.0 W/m2
16:49 86.9 °F 43.5 °F 30.23 in SSE 2.9 mph 9.0 mph 22% 0.00 in 95.0 W/m2
16:54 86.4 °F 43.0 °F 30.23 in SE 2.9 mph 9.0 mph 22% 0.00 in 584.0 W/m2
16:59 85.6 °F 44.8 °F 30.22 in SE 6.0 mph 10.0 mph 24% 0.00 in 515.0 W/m2
17:10 86.4 °F 44.2 °F 30.22 in ESE 6.0 mph 7.0 mph 23% 0.00 in 464.0 W/m2
17:15 86.7 °F 43.3 °F 30.22 in SSE 6.0 mph 6.0 mph 22% 0.00 in 443.0 W/m2
17:20 86.7 °F 43.3 °F 30.22 in SE 2.0 mph 6.0 mph 22% 0.00 in 429.0 W/m2
17:25 86.7 °F 43.3 °F 30.22 in South 6.9 mph 12.0 mph 22% 0.00 in 410.0 W/m2
17:31 86.9 °F 41.0 °F 30.22 in SSE 2.9 mph 9.0 mph 20% 0.00 in 396.0 W/m2
17:36 87.1 °F 41.2 °F 30.22 in SSE 8.1 mph 12.0 mph 20% 0.00 in 374.0 W/m2
17:46 87.1 °F 41.2 °F 30.22 in SSE 0.9 mph 5.0 mph 20% 0.00 in 336.0 W/m2
17:51 87.3 °F 41.4 °F 30.22 in SE 2.0 mph 8.0 mph 20% 0.00 in 318.0 W/m2
17:56 87.4 °F 40.1 °F 30.22 in SSE 4.9 mph 10.0 mph 19% 0.00 in 299.0 W/m2
18:01 87.1 °F 39.7 °F 30.22 in SE 2.9 mph 7.0 mph 19% 0.00 in 279.0 W/m2
18:06 86.7 °F 39.6 °F 30.22 in SE 2.0 mph 7.0 mph 19% 0.00 in 260.0 W/m2
18:22 86.4 °F 39.2 °F 30.22 in SE 2.9 mph 6.0 mph 19% 0.00 in 179.0 W/m2
18:27 86.2 °F 39.0 °F 30.23 in SE 4.9 mph 8.0 mph 19% 0.00 in 132.0 W/m2
18:37 84.9 °F 39.4 °F 30.23 in SSE 4.0 mph 6.0 mph 20% 0.00 in 32.0 W/m2
18:42 84.4 °F 40.1 °F 30.23 in ESE 4.0 mph 9.0 mph 21% 0.00 in 28.0 W/m2
18:47 84.0 °F 39.9 °F 30.23 in SE 2.9 mph 7.0 mph 21% 0.00 in 26.0 W/m2
18:52 83.7 °F 39.6 °F 30.23 in SE 2.0 mph 3.0 mph 21% 0.00 in 23.0 W/m2
18:57 83.5 °F 40.6 °F 30.23 in ESE 0.9 mph 3.0 mph 22% 0.00 in 21.0 W/m2
19:03 83.1 °F 40.3 °F 30.24 in Calm   4.0 mph 22% 0.00 in 18.0 W/m2
19:08 82.8 °F 41.2 °F 30.23 in ESE 0.9 mph 2.0 mph 23% 0.00 in 14.0 W/m2
19:13 82.4 °F 40.8 °F 30.24 in SE 2.0 mph 3.0 mph 23% 0.00 in 11.0 W/m2
19:18 82.0 °F 41.7 °F 30.24 in SE 2.0 mph 5.0 mph 24% 0.00 in 7.0 W/m2
19:28 81.1 °F 43.0 °F 30.24 in SE 2.0 mph 8.0 mph 26% 0.00 in 0.0 W/m2
19:38 80.1 °F 44.1 °F 30.24 in ESE 0.9 mph 2.0 mph 28% 0.00 in 0.0 W/m2
19:49 79.3 °F 44.2 °F 30.24 in ESE 2.0 mph 4.0 mph 29% 0.00 in 0.0 W/m2
19:54 79.0 °F 44.1 °F 30.24 in ESE 2.9 mph 6.0 mph 29% 0.00 in 0.0 W/m2
19:59 78.6 °F 44.6 °F 30.24 in ESE 2.0 mph 4.0 mph 30% 0.00 in 0.0 W/m2
20:04 78.4 °F 45.3 °F 30.25 in Calm   5.0 mph 31% 0.00 in 0.0 W/m2
20:19 77.5 °F 44.6 °F 30.25 in SE 0.9 mph 4.0 mph 31% 0.00 in 0.0 W/m2
20:29 77.2 °F 45.0 °F 30.25 in SE 4.0 mph 5.0 mph 32% 0.00 in 0.0 W/m2
20:40 76.8 °F 45.5 °F 30.25 in SE 4.0 mph 6.0 mph 33% 0.00 in 0.0 W/m2
20:45 76.6 °F 45.3 °F 30.25 in ESE 6.0 mph 6.0 mph 33% 0.00 in 0.0 W/m2
20:55 76.3 °F 45.9 °F 30.25 in SE 4.0 mph 5.0 mph 34% 0.00 in 0.0 W/m2
21:05 75.9 °F 45.5 °F 30.26 in SSE 2.9 mph 4.0 mph 34% 0.00 in 0.0 W/m2
21:10 75.9 °F 45.5 °F 30.25 in ESE 0.9 mph 5.0 mph 34% 0.00 in 0.0 W/m2
21:15 75.7 °F 46.2 °F 30.25 in SE 0.9 mph 4.0 mph 35% 0.00 in 0.0 W/m2
21:20 75.6 °F 46.8 °F 30.25 in Calm   3.0 mph 36% 0.00 in 0.0 W/m2
21:26 75.6 °F 46.0 °F 30.26 in ESE 2.0 mph 3.0 mph 35% 0.00 in 0.0 W/m2
21:31 75.4 °F 45.9 °F 30.25 in ESE 2.0 mph 5.0 mph 35% 0.00 in 0.0 W/m2
21:36 75.2 °F 45.0 °F 30.26 in ESE 2.9 mph 5.0 mph 34% 0.00 in 0.0 W/m2
21:41 75.2 °F 45.7 °F 30.26 in SE 2.0 mph 3.0 mph 35% 0.00 in 0.0 W/m2
21:46 75.0 °F 45.5 °F 30.26 in SE 0.9 mph 4.0 mph 35% 0.00 in 0.0 W/m2
22:07 75.2 °F 45.0 °F 30.26 in East 0.9 mph 5.0 mph 34% 0.00 in 0.0 W/m2
22:12 75.4 °F 44.2 °F 30.27 in SE 2.0 mph 4.0 mph 33% 0.00 in 0.0 W/m2
22:17 75.4 °F 43.5 °F 30.27 in SE 4.9 mph 6.0 mph 32% 0.00 in 0.0 W/m2
22:22 75.4 °F 42.6 °F 30.27 in ESE 2.9 mph 7.0 mph 31% 0.00 in 0.0 W/m2
22:27 75.4 °F 45.1 °F 30.27 in ENE 0.9 mph 7.0 mph 34% 0.00 in 0.0 W/m2
22:32 75.0 °F 46.2 °F 30.27 in NE 0.9 mph 5.0 mph 36% 0.00 in 0.0 W/m2
22:37 74.8 °F 47.5 °F 30.28 in ESE 2.0 mph 3.0 mph 38% 0.00 in 0.0 W/m2
22:43 74.5 °F 48.6 °F 30.28 in ENE 0.9 mph 9.0 mph 40% 0.00 in 0.0 W/m2
22:48 74.1 °F 49.6 °F 30.28 in NNE 4.0 mph 8.0 mph 42% 0.00 in 0.0 W/m2
22:58 73.6 °F 52.2 °F 30.28 in Calm   10.0 mph 47% 0.00 in 0.0 W/m2
23:08 73.2 °F 52.3 °F 30.28 in Calm   8.0 mph 48% 0.00 in 0.0 W/m2
23:13 72.9 °F 52.5 °F 30.28 in Calm   9.0 mph 49% 0.00 in 0.0 W/m2
23:18 72.7 °F 52.9 °F 30.28 in East 4.0 mph 9.0 mph 50% 0.00 in 0.0 W/m2
23:23 72.3 °F 53.2 °F 30.28 in NE 4.9 mph 8.0 mph 51% 0.00 in 0.0 W/m2
23:28 72.0 °F 53.4 °F 30.28 in NNE 0.9 mph 5.0 mph 52% 0.00 in 0.0 W/m2
23:34 71.8 °F 53.2 °F 30.28 in NE 0.9 mph 5.0 mph 52% 0.00 in 0.0 W/m2
23:39 71.4 °F 53.4 °F 30.27 in East 4.0 mph 5.0 mph 53% 0.00 in 0.0 W/m2
23:44 71.1 °F 53.6 °F 30.27 in ESE 2.9 mph 5.0 mph 54% 0.00 in 0.0 W/m2
23:49 70.9 °F 54.0 °F 30.27 in ENE 0.9 mph 9.0 mph 55% 0.00 in 0.0 W/m2
23:54 70.5 °F 54.1 °F 30.27 in ESE 4.9 mph 8.0 mph 56% 0.00 in 0.0 W/m2
23:59 70.3 °F 54.0 °F 30.27 in NE 2.9 mph 5.0 mph 56% 0.00 in 0.0 W/m2
Olympia, Windhoek, Namibia
Compliments of Weather Underground - 3 mb